createdAt,value
2018-08-27T00:00:42.937Z,15.58
2018-08-27T00:01:53.025Z,15.58
2018-08-27T00:03:03.116Z,15.58
2018-08-27T00:04:13.182Z,15.56
2018-08-27T00:05:23.367Z,15.44
2018-08-27T00:06:33.445Z,15.56
2018-08-27T00:07:43.527Z,15.47
2018-08-27T00:08:53.623Z,15.52
2018-08-27T00:10:03.737Z,15.49
2018-08-27T00:11:13.525Z,15.41
2018-08-27T00:12:23.079Z,15.49
2018-08-27T00:13:33.183Z,15.45
2018-08-27T00:14:43.246Z,15.47
2018-08-27T00:15:53.330Z,15.44
2018-08-27T00:17:03.401Z,15.44
2018-08-27T00:18:13.233Z,15.47
2018-08-27T00:19:23.048Z,15.41
2018-08-27T00:20:32.919Z,15.45
2018-08-27T00:21:42.993Z,15.43
2018-08-27T00:22:53.071Z,15.45
2018-08-27T00:24:03.220Z,15.41
2018-08-27T00:25:13.297Z,15.44
2018-08-27T00:26:23.363Z,15.41
2018-08-27T00:27:33.453Z,15.43
2018-08-27T00:28:43.517Z,15.38
2018-08-27T00:29:53.615Z,15.44
2018-08-27T00:31:03.414Z,15.35
2018-08-27T00:32:13.232Z,15.49
2018-08-27T00:33:23.053Z,15.45
2018-08-27T00:34:33.180Z,15.44
2018-08-27T00:35:43.286Z,15.37
2018-08-27T00:36:53.343Z,15.33
2018-08-27T00:38:03.432Z,15.33
2018-08-27T00:39:13.509Z,15.26
2018-08-27T00:40:23.576Z,15.31
2018-08-27T00:41:33.375Z,15.31
2018-08-27T00:42:43.173Z,15.35
2018-08-27T00:43:53.248Z,15.38
2018-08-27T00:45:03.325Z,15.35
2018-08-27T00:46:13.402Z,15.27
2018-08-27T00:47:22.950Z,15.37
2018-08-27T00:48:32.769Z,15.34
2018-08-27T00:49:42.845Z,15.33
2018-08-27T00:50:52.921Z,15.33
2018-08-27T00:52:03.231Z,15.34
2018-08-27T00:53:13.317Z,15.33
2018-08-27T00:54:23.379Z,15.33
2018-08-27T00:55:33.483Z,15.3
2018-08-27T00:56:43.294Z,15.31
2018-08-27T00:57:53.391Z,15.26
2018-08-27T00:59:03.472Z,15.26
2018-08-27T01:00:13.584Z,15.2
2018-08-27T01:01:23.386Z,15.3
2018-08-27T01:02:33.466Z,15.27
2018-08-27T01:03:43.577Z,15.35
2018-08-27T01:04:53.635Z,15.26
2018-08-27T01:06:03.700Z,15.25
2018-08-27T01:07:13.774Z,15.3
2018-08-27T01:08:23.856Z,15.33
2018-08-27T01:09:33.941Z,15.33
2018-08-27T01:10:43.750Z,15.31
2018-08-27T01:11:53.825Z,15.26
2018-08-27T01:13:03.894Z,15.35
2018-08-27T01:14:13.974Z,15.27
2018-08-27T01:15:24.045Z,15.35
2018-08-27T01:16:33.852Z,15.19
2018-08-27T01:17:43.671Z,15.22
2018-08-27T01:18:53.493Z,15.26
2018-08-27T01:20:03.667Z,15.27
2018-08-27T01:21:13.753Z,15.27
2018-08-27T01:22:23.682Z,15.25
2018-08-27T01:23:33.603Z,15.31
2018-08-27T01:24:43.724Z,15.25
2018-08-27T01:25:53.789Z,15.19
2018-08-27T01:27:03.595Z,15.2
2018-08-27T01:28:13.682Z,15.27
2018-08-27T01:29:23.748Z,15.22
2018-08-27T01:30:33.809Z,15.2
2018-08-27T01:31:43.638Z,15.3
2018-08-27T01:32:53.735Z,15.26
2018-08-27T01:34:03.808Z,15.23
2018-08-27T01:35:13.614Z,15.25
2018-08-27T01:36:23.702Z,15.27
2018-08-27T01:37:33.825Z,15.27
2018-08-27T01:38:43.429Z,15.2
2018-08-27T01:39:53.485Z,15.19
2018-08-27T01:41:03.579Z,15.25
2018-08-27T01:42:13.709Z,15.15
2018-08-27T01:43:23.499Z,15.19
2018-08-27T01:44:33.555Z,15.25
2018-08-27T01:45:43.638Z,15.23
2018-08-27T01:46:53.468Z,15.13
2018-08-27T01:48:03.530Z,15.19
2018-08-27T01:49:13.362Z,15.15
2018-08-27T01:50:23.482Z,15.16
2018-08-27T01:51:33.274Z,15.18
2018-08-27T01:52:42.808Z,15.25
2018-08-27T01:53:52.885Z,15.27
2018-08-27T01:55:02.939Z,15.3
2018-08-27T01:56:13.011Z,15.18
2018-08-27T01:57:23.093Z,15.25
2018-08-27T01:58:33.156Z,15.23
2018-08-27T01:59:43.244Z,15.23
2018-08-27T02:00:53.055Z,15.23
2018-08-27T02:02:02.912Z,15.18
2018-08-27T02:03:12.713Z,15.23
2018-08-27T02:04:22.786Z,15.2
2018-08-27T02:05:32.874Z,15.25
2018-08-27T02:06:42.935Z,15.26
2018-08-27T02:07:53.045Z,15.19
2018-08-27T02:09:03.111Z,15.23
2018-08-27T02:10:13.170Z,15.3
2018-08-27T02:11:23.226Z,15.25
2018-08-27T02:12:33.097Z,15.33
2018-08-27T02:13:42.944Z,15.22
2018-08-27T02:14:53.010Z,15.25
2018-08-27T02:16:03.069Z,15.3
2018-08-27T02:17:13.148Z,15.27
2018-08-27T02:18:22.966Z,15.27
2018-08-27T02:19:33.025Z,15.2
2018-08-27T02:20:42.858Z,15.23
2018-08-27T02:21:52.929Z,15.23
2018-08-27T02:23:02.741Z,15.22
2018-08-27T02:24:12.805Z,15.2
2018-08-27T02:25:22.943Z,15.2
2018-08-27T02:26:33.013Z,15.2
2018-08-27T02:27:43.099Z,15.18
2018-08-27T02:28:53.224Z,15.2
2018-08-27T02:30:03.351Z,15.12
2018-08-27T02:31:13.420Z,15.12
2018-08-27T02:32:23.592Z,15.1
2018-08-27T02:33:33.674Z,15.15
2018-08-27T02:34:43.752Z,15.12
2018-08-27T02:35:53.910Z,15.13
2018-08-27T02:37:04.082Z,15.02
2018-08-27T02:38:13.905Z,15.05
2018-08-27T02:39:23.985Z,14.98
2018-08-27T02:40:34.053Z,15.07
2018-08-27T02:41:44.122Z,15.07
2018-08-27T02:42:54.264Z,15.04
2018-08-27T02:44:03.820Z,15.04
2018-08-27T02:45:13.895Z,14.98
2018-08-27T02:46:23.959Z,15.02
2018-08-27T02:47:33.778Z,14.98
2018-08-27T02:48:43.861Z,15.01
2018-08-27T02:49:53.936Z,14.87
2018-08-27T02:51:04.010Z,14.93
2018-08-27T02:52:14.092Z,14.98
2018-08-27T02:53:23.897Z,14.98
2018-08-27T02:54:33.753Z,14.95
2018-08-27T02:55:43.826Z,14.89
2018-08-27T02:56:53.888Z,14.89
2018-08-27T02:58:03.969Z,14.93
2018-08-27T02:59:13.775Z,14.9
2018-08-27T03:00:23.847Z,14.86
2018-08-27T03:01:33.911Z,14.89
2018-08-27T03:02:43.724Z,14.77
2018-08-27T03:34:51.463Z,12.74
2018-08-27T03:36:01.643Z,12.62
2018-08-27T03:37:11.728Z,12.59
2018-08-27T03:38:21.799Z,12.69
2018-08-27T03:39:31.865Z,12.59
2018-08-27T03:40:42.193Z,12.71
2018-08-27T03:41:52.695Z,12.83
2018-08-27T03:43:02.752Z,12.89
2018-08-27T03:44:12.828Z,13.03
2018-08-27T03:45:22.894Z,13.11
2018-08-27T03:46:33.047Z,13.21
2018-08-27T03:47:43.149Z,13.51
2018-08-27T03:48:52.984Z,13.51
2018-08-27T03:50:03.058Z,13.62
2018-08-27T03:51:13.233Z,13.63
2018-08-27T03:52:23.373Z,13.7
2018-08-27T03:53:33.437Z,13.84
2018-08-27T03:54:43.499Z,13.9
2018-08-27T03:55:53.582Z,14.02
2018-08-27T03:57:03.662Z,14.11
2018-08-27T03:58:13.766Z,14.15
2018-08-27T03:59:23.848Z,14.2
2018-08-27T04:00:33.936Z,14.23
2018-08-27T04:01:43.989Z,14.28
2018-08-27T04:02:53.544Z,14.27
2018-08-27T04:04:03.674Z,14.41
2018-08-27T04:05:13.891Z,14.42
2018-08-27T04:06:23.953Z,14.48
2018-08-27T04:07:33.786Z,14.46
2018-08-27T04:08:43.593Z,14.57
2018-08-27T04:09:53.407Z,14.57
2018-08-27T04:11:03.494Z,14.59
2018-08-27T04:12:13.573Z,14.59
2018-08-27T04:13:23.637Z,14.64
2018-08-27T04:14:33.441Z,14.63
2018-08-27T04:15:42.989Z,14.7
2018-08-27T04:16:52.806Z,14.75
2018-08-27T04:18:02.863Z,14.79
2018-08-27T04:19:12.946Z,14.85
2018-08-27T04:20:23.019Z,14.77
2018-08-27T04:21:33.105Z,14.77
2018-08-27T04:22:43.162Z,14.93
2018-08-27T04:23:53.234Z,14.93
2018-08-27T04:25:03.324Z,15.07
2018-08-27T04:26:13.409Z,15.07
2018-08-27T04:27:23.212Z,15.08
2018-08-27T04:28:33.323Z,15.22
2018-08-27T04:29:43.566Z,15.33
2018-08-27T04:30:53.375Z,15.35
2018-08-27T04:32:03.197Z,15.35
2018-08-27T04:33:13.337Z,15.37
2018-08-27T04:34:23.423Z,15.53
2018-08-27T04:35:33.492Z,15.86
2018-08-27T04:36:43.327Z,16.36
2018-08-27T04:37:53.404Z,16.82
2018-08-27T04:39:03.525Z,17.12
2018-08-27T04:40:13.654Z,17.36
2018-08-27T04:41:23.717Z,17.57
2018-08-27T04:42:33.988Z,17.63
2018-08-27T04:43:44.280Z,17.79
2018-08-27T04:44:54.363Z,17.88
2018-08-27T04:46:03.917Z,18.19
2018-08-27T04:47:14.266Z,18.16
2018-08-27T04:48:24.096Z,18.23
2018-08-27T04:49:34.169Z,18.05
2018-08-27T04:50:44.241Z,17.88
2018-08-27T04:51:54.367Z,17.73
2018-08-27T04:53:04.445Z,17.52
2018-08-27T04:54:14.041Z,17.31
2018-08-27T04:55:23.855Z,17.21
2018-08-27T04:56:33.975Z,17.07
2018-08-27T04:57:44.039Z,17.13
2018-08-27T04:58:53.856Z,17.21
2018-08-27T05:00:03.984Z,17.71
2018-08-27T05:01:14.064Z,18.05
2018-08-27T05:02:23.625Z,18.24
2018-08-27T05:03:33.699Z,18.53
2018-08-27T05:04:43.516Z,18.5
2018-08-27T05:05:53.318Z,18.42
2018-08-27T05:07:03.137Z,18.66
2018-08-27T05:08:13.223Z,18.99
2018-08-27T05:09:23.316Z,19.07
2018-08-27T05:10:33.542Z,19.1
2018-08-27T05:11:43.658Z,19.16
2018-08-27T05:12:53.470Z,19.2
2018-08-27T05:14:03.586Z,19.25
2018-08-27T05:15:13.653Z,19.31
2018-08-27T05:16:23.478Z,19.55
2018-08-27T05:17:33.537Z,19.55
2018-08-27T05:18:43.344Z,19.74
2018-08-27T05:19:53.412Z,19.87
2018-08-27T05:21:03.243Z,20.07
2018-08-27T05:22:13.341Z,20.26
2018-08-27T05:23:23.424Z,20.42
2018-08-27T05:24:33.250Z,20.61
2018-08-27T05:25:43.367Z,20.76
2018-08-27T05:26:53.181Z,20.81
2018-08-27T05:28:03.302Z,20.91
2018-08-27T05:29:13.111Z,21.03
2018-08-27T05:30:23.207Z,21.03
2018-08-27T05:31:33.571Z,20.93
2018-08-27T05:32:43.393Z,20.97
2018-08-27T05:33:53.200Z,20.93
2018-08-27T05:35:03.002Z,20.81
2018-08-27T05:36:13.068Z,20.97
2018-08-27T05:37:23.136Z,20.97
2018-08-27T05:38:33.483Z,20.74
2018-08-27T05:39:43.460Z,20.25
2018-08-27T05:40:53.540Z,20.01
2018-08-27T05:42:03.615Z,19.74
2018-08-27T05:43:13.748Z,19.83
2018-08-27T05:44:23.632Z,20.07
2018-08-27T05:45:33.853Z,20.35
2018-08-27T05:46:43.917Z,20.46
2018-08-27T05:47:54.146Z,20.16
2018-08-27T05:49:04.326Z,20
2018-08-27T05:50:14.138Z,19.71
2018-08-27T05:51:23.689Z,19.6
2018-08-27T05:52:33.795Z,19.56
2018-08-27T05:53:43.886Z,19.43
2018-08-27T05:54:54.051Z,19.53
2018-08-27T05:56:04.127Z,19.79
2018-08-27T05:57:13.938Z,20.12
2018-08-27T05:58:24.000Z,20.29
2018-08-27T05:59:33.808Z,20.27
2018-08-27T06:00:43.359Z,20.11
2018-08-27T06:01:53.615Z,19.97
2018-08-27T06:03:03.996Z,19.97
2018-08-27T06:04:14.085Z,20.05
2018-08-27T06:05:24.173Z,20.27
2018-08-27T06:06:33.995Z,20.54
2018-08-27T06:07:44.076Z,20.54
2018-08-27T06:08:54.166Z,20.42
2018-08-27T06:10:04.247Z,20.32
2018-08-27T06:11:14.681Z,20.22
2018-08-27T06:12:25.065Z,20.15
2018-08-27T06:13:35.208Z,20.18
2018-08-27T06:14:45.028Z,20.37
2018-08-27T06:15:55.120Z,20.48
2018-08-27T06:17:05.431Z,20.41
2018-08-27T06:18:15.909Z,20.37
2018-08-27T06:19:25.722Z,20.35
2018-08-27T06:20:35.538Z,20.32
2018-08-27T06:21:45.674Z,20.19
2018-08-27T06:22:55.983Z,20.27
2018-08-27T06:24:06.054Z,20.25
2018-08-27T06:25:16.226Z,20.26
2018-08-27T06:26:26.328Z,20.29
2018-08-27T06:27:36.409Z,20.29
2018-08-27T06:28:46.490Z,20.3
2018-08-27T06:29:56.572Z,20.27
2018-08-27T06:31:06.406Z,20.32
2018-08-27T06:32:15.949Z,20.3
2018-08-27T06:33:26.092Z,20.26
2018-08-27T06:34:36.190Z,20.26
2018-08-27T06:35:46.260Z,20.22
2018-08-27T06:36:56.089Z,20.37
2018-08-27T06:38:06.159Z,20.35
2018-08-27T06:39:16.413Z,20.46
2018-08-27T06:40:26.482Z,20.51
2018-08-27T06:41:36.341Z,20.57
2018-08-27T06:42:46.147Z,20.54
2018-08-27T06:43:56.223Z,20.64
2018-08-27T06:45:06.310Z,20.72
2018-08-27T06:46:16.539Z,20.75
2018-08-27T06:47:26.981Z,20.74
2018-08-27T06:48:37.046Z,20.86
2018-08-27T06:49:47.126Z,20.93
2018-08-27T06:50:57.215Z,21.06
2018-08-27T06:52:07.295Z,21.23
2018-08-27T06:53:17.419Z,21.3
2018-08-27T06:54:27.485Z,21.38
2018-08-27T06:55:37.561Z,21.52
2018-08-27T06:56:47.873Z,21.58
2018-08-27T06:57:58.134Z,21.56
2018-08-27T06:59:08.139Z,21.71
2018-08-27T07:00:18.220Z,21.76
2018-08-27T07:01:28.297Z,21.78
2018-08-27T07:02:38.400Z,21.94
2018-08-27T07:03:48.500Z,22
2018-08-27T07:04:58.329Z,22.07
2018-08-27T07:06:08.838Z,21.99
2018-08-27T07:07:18.395Z,22.11
2018-08-27T07:08:27.950Z,22.22
2018-08-27T07:09:37.774Z,22.27
2018-08-27T07:10:47.863Z,22.29
2018-08-27T07:11:57.897Z,22.41
2018-08-27T07:13:07.967Z,22.48
2018-08-27T07:14:18.058Z,22.51
2018-08-27T07:15:27.609Z,22.61
2018-08-27T07:16:37.495Z,22.61
2018-08-27T07:17:47.419Z,22.61
2018-08-27T07:18:57.508Z,22.76
2018-08-27T07:20:07.469Z,22.82
2018-08-27T07:21:17.707Z,22.78
2018-08-27T07:22:27.788Z,22.79
2018-08-27T07:23:37.883Z,22.86
2018-08-27T07:24:47.977Z,22.84
2018-08-27T07:25:58.066Z,22.81
2018-08-27T07:27:08.148Z,22.89
2018-08-27T07:28:17.970Z,22.88
2018-08-27T07:29:28.052Z,22.92
2018-08-27T07:30:37.874Z,22.91
2018-08-27T07:31:47.967Z,22.94
2018-08-27T07:32:57.767Z,22.79
2018-08-27T07:34:07.583Z,22.67
2018-08-27T07:35:17.659Z,22.55
2018-08-27T07:36:27.832Z,22.6
2018-08-27T07:37:38.122Z,22.55
2018-08-27T07:38:48.198Z,22.51
2018-08-27T07:39:58.014Z,22.45
2018-08-27T07:41:08.128Z,22.42
2018-08-27T07:42:18.204Z,22.23
2018-08-27T07:43:28.545Z,22.3
2018-08-27T07:44:38.780Z,22.23
2018-08-27T07:45:48.874Z,22.3
2018-08-27T07:46:58.692Z,22.3
2018-08-27T07:48:08.786Z,22.3
2018-08-27T07:49:18.867Z,22.41
2018-08-27T07:50:28.956Z,22.42
2018-08-27T07:51:39.143Z,22.46
2018-08-27T07:52:49.236Z,22.38
2018-08-27T07:53:59.073Z,22.46
2018-08-27T07:55:09.155Z,22.57
2018-08-27T07:56:18.964Z,22.49
2018-08-27T07:57:28.766Z,22.41
2018-08-27T07:58:39.091Z,22.39
2018-08-27T07:59:49.251Z,22.39
2018-08-27T08:00:59.338Z,22.31
2018-08-27T08:02:09.170Z,22.41
2018-08-27T08:03:19.246Z,22.42
2018-08-27T08:04:29.147Z,22.44
2018-08-27T08:05:39.360Z,22.48
2018-08-27T08:06:49.460Z,22.54
2018-08-27T08:07:59.268Z,22.52
2018-08-27T08:09:09.098Z,22.49
2018-08-27T08:10:19.198Z,22.69
2018-08-27T08:11:29.017Z,22.71
2018-08-27T08:12:39.103Z,22.79
2018-08-27T08:13:49.191Z,22.91
2018-08-27T08:14:59.008Z,22.92
2018-08-27T08:16:09.080Z,22.88
2018-08-27T08:17:19.161Z,22.94
2018-08-27T08:18:28.977Z,22.97
2018-08-27T08:19:39.046Z,23.06
2018-08-27T08:20:48.870Z,23.1
2018-08-27T08:21:58.955Z,23.14
2018-08-27T08:23:09.048Z,23.15
2018-08-27T08:24:19.111Z,23.26
2018-08-27T08:25:28.682Z,23.19
2018-08-27T08:26:38.747Z,23.24
2018-08-27T08:27:48.820Z,23.32
2018-08-27T08:28:58.640Z,23.32
2018-08-27T08:30:08.721Z,23.4
2018-08-27T08:31:18.815Z,23.48
2018-08-27T08:32:28.621Z,23.53
2018-08-27T08:33:38.719Z,23.55
2018-08-27T08:34:48.781Z,23.55
2018-08-27T08:35:58.598Z,23.57
2018-08-27T08:37:08.683Z,23.48
2018-08-27T08:38:18.548Z,23.56
2018-08-27T08:39:28.625Z,23.62
2018-08-27T08:40:38.710Z,23.55
2018-08-27T08:41:48.794Z,23.57
2018-08-27T08:42:58.865Z,23.57
2018-08-27T08:44:08.709Z,23.67
2018-08-27T08:45:18.792Z,23.56
2018-08-27T08:46:28.868Z,23.57
2018-08-27T08:47:38.690Z,23.56
2018-08-27T08:48:48.529Z,23.53
2018-08-27T08:49:58.651Z,23.56
2018-08-27T08:51:08.729Z,23.59
2018-08-27T08:52:18.569Z,23.57
2018-08-27T08:53:28.833Z,23.64
2018-08-27T08:54:38.886Z,23.64
2018-08-27T08:55:48.965Z,23.64
2018-08-27T08:56:59.059Z,23.7
2018-08-27T08:58:09.132Z,23.62
2018-08-27T08:59:19.214Z,23.77
2018-08-27T09:00:29.285Z,23.71
2018-08-27T09:01:39.611Z,23.79
2018-08-27T09:02:49.977Z,23.77
2018-08-27T09:03:59.787Z,23.79
2018-08-27T09:05:09.609Z,23.77
2018-08-27T09:06:19.846Z,23.72
2018-08-27T09:07:30.285Z,23.74
2018-08-27T09:08:41.166Z,23.84
2018-08-27T09:09:51.095Z,23.78
2018-08-27T09:11:01.170Z,23.87
2018-08-27T09:12:11.270Z,23.82
2018-08-27T09:13:21.384Z,23.87
2018-08-27T09:14:31.466Z,23.85
2018-08-27T09:15:41.594Z,23.97
2018-08-27T09:16:51.665Z,24
2018-08-27T09:18:01.628Z,24.03
2018-08-27T09:19:11.488Z,24.08
2018-08-27T09:20:21.368Z,24.15
2018-08-27T09:21:31.472Z,24.18
2018-08-27T09:22:41.308Z,24.29
2018-08-27T09:23:51.926Z,24.3
2018-08-27T09:25:01.833Z,24.36
2018-08-27T09:26:11.926Z,24.33
2018-08-27T09:27:22.059Z,24.27
2018-08-27T09:28:32.150Z,24.33
2018-08-27T09:29:42.010Z,24.45
2018-08-27T09:30:52.150Z,24.52
2018-08-27T09:32:02.263Z,24.56
2018-08-27T09:33:12.697Z,24.56
2018-08-27T09:34:22.941Z,24.49
2018-08-27T09:35:32.749Z,24.56
2018-08-27T09:36:42.615Z,24.59
2018-08-27T09:37:52.501Z,24.56
2018-08-27T09:39:03.310Z,24.58
2018-08-27T09:40:13.401Z,24.78
2018-08-27T09:41:23.505Z,24.69
2018-08-27T09:42:33.418Z,24.74
2018-08-27T09:43:43.539Z,24.77
2018-08-27T09:44:53.597Z,24.78
2018-08-27T09:46:04.463Z,24.86
2018-08-27T09:47:14.635Z,24.82
2018-08-27T09:48:24.721Z,24.82
2018-08-27T09:49:34.799Z,24.71
2018-08-27T09:50:44.665Z,24.77
2018-08-27T09:51:54.763Z,24.67
2018-08-27T09:53:04.999Z,24.7
2018-08-27T09:54:15.340Z,24.77
2018-08-27T09:55:25.435Z,24.78
2018-08-27T09:56:35.545Z,24.71
2018-08-27T09:57:45.632Z,24.78
2018-08-27T09:58:56.004Z,24.78
2018-08-27T10:00:06.204Z,24.78
2018-08-27T10:01:16.037Z,24.92
2018-08-27T10:02:26.154Z,25.08
2018-08-27T10:03:36.275Z,25.19
2018-08-27T10:04:46.359Z,25.17
2018-08-27T10:05:56.456Z,25.34
2018-08-27T10:07:06.559Z,25.42
2018-08-27T10:08:16.111Z,25.52
2018-08-27T10:09:25.935Z,25.59
2018-08-27T10:10:36.030Z,25.7
2018-08-27T10:11:46.151Z,25.64
2018-08-27T10:12:55.981Z,25.67
2018-08-27T10:14:05.818Z,25.71
2018-08-27T10:15:15.638Z,25.71
2018-08-27T10:16:25.732Z,25.59
2018-08-27T10:17:35.807Z,25.63
2018-08-27T10:18:45.895Z,25.67
2018-08-27T10:19:55.993Z,25.7
2018-08-27T10:21:05.807Z,25.84
2018-08-27T10:22:16.131Z,25.85
2018-08-27T10:23:26.814Z,25.91
2018-08-27T10:24:36.906Z,25.93
2018-08-27T10:25:46.981Z,25.88
2018-08-27T10:26:57.189Z,25.96
2018-08-27T10:28:07.289Z,25.93
2018-08-27T10:29:17.392Z,26.03
2018-08-27T10:30:27.505Z,26.12
2018-08-27T10:31:37.625Z,26.26
2018-08-27T10:32:47.799Z,26.26
2018-08-27T10:33:57.942Z,26.32
2018-08-27T10:35:08.092Z,26.31
2018-08-27T10:36:18.198Z,26.38
2018-08-27T10:37:28.022Z,26.42
2018-08-27T10:38:38.206Z,26.45
2018-08-27T10:40:03.328Z,26.56
2018-08-27T10:41:13.406Z,26.68
2018-08-27T10:42:23.533Z,26.75
2018-08-27T10:43:33.634Z,26.93
2018-08-27T10:44:58.145Z,26.91
2018-08-27T10:46:08.248Z,27.09
2018-08-27T10:47:18.409Z,27.09
2018-08-27T10:48:28.506Z,27.28
2018-08-27T10:49:38.585Z,27.45
2018-08-27T10:50:48.681Z,27.42
2018-08-27T10:51:58.798Z,27.49
2018-08-27T10:53:08.657Z,27.62
2018-08-27T10:54:18.758Z,27.65
2018-08-27T10:55:28.645Z,27.69
2018-08-27T10:56:38.829Z,27.87
2018-08-27T10:57:48.948Z,27.98
2018-08-27T10:58:59.058Z,28.02
2018-08-27T11:00:08.644Z,28.14
2018-08-27T11:01:18.753Z,28.39
2018-08-27T11:02:29.104Z,28.42
2018-08-27T11:03:39.218Z,28.63
2018-08-27T11:04:49.320Z,28.67
2018-08-27T11:05:59.427Z,28.91
2018-08-27T11:07:09.539Z,29.02
2018-08-27T11:08:19.680Z,29.18
2018-08-27T11:09:29.826Z,29.23
2018-08-27T11:10:39.903Z,29.15
2018-08-27T11:11:50.343Z,29.05
2018-08-27T11:13:00.457Z,29.03
2018-08-27T11:14:10.646Z,28.86
2018-08-27T11:15:21.050Z,28.98
2018-08-27T11:16:31.154Z,28.94
2018-08-27T11:17:41.011Z,28.98
2018-08-27T11:18:51.164Z,29.08
2018-08-27T11:20:01.623Z,28.98
2018-08-27T11:21:12.165Z,28.85
2018-08-27T11:22:22.309Z,28.76
2018-08-27T11:23:32.412Z,28.61
2018-08-27T11:24:42.506Z,28.46
2018-08-27T11:25:52.615Z,28.27
2018-08-27T11:27:02.877Z,28.23
2018-08-27T11:28:12.746Z,28.02
2018-08-27T11:29:22.874Z,28.08
2018-08-27T11:30:32.968Z,28.18
2018-08-27T11:31:43.143Z,28.16
2018-08-27T11:32:53.389Z,28.16
2018-08-27T11:34:03.865Z,28.3
2018-08-27T11:35:13.459Z,28.28
2018-08-27T11:36:23.319Z,28.31
2018-08-27T11:37:33.415Z,28.38
2018-08-27T11:38:43.265Z,28.41
2018-08-27T11:39:53.369Z,28.41
2018-08-27T11:41:03.484Z,28.36
2018-08-27T11:42:13.576Z,28.28
2018-08-27T11:43:23.877Z,28.18
2018-08-27T11:44:34.280Z,28.12
2018-08-27T11:45:44.098Z,28.02
2018-08-27T11:46:54.223Z,27.99
2018-08-27T11:48:04.048Z,28.06
2018-08-27T11:49:13.928Z,27.94
2018-08-27T11:50:24.204Z,27.98
2018-08-27T11:51:34.680Z,28.05
2018-08-27T11:52:44.769Z,28.03
2018-08-27T11:53:54.914Z,27.99
2018-08-27T11:55:05.555Z,28.03
2018-08-27T11:56:15.468Z,28.05
2018-08-27T11:57:25.610Z,27.99
2018-08-27T11:58:35.947Z,28.05
2018-08-27T11:59:46.356Z,27.98
2018-08-27T12:00:56.481Z,27.98
2018-08-27T12:02:07.037Z,27.98
2018-08-27T12:03:17.060Z,28.02
2018-08-27T12:04:27.166Z,27.89
2018-08-27T12:05:37.257Z,27.93
2018-08-27T12:06:47.142Z,27.87
2018-08-27T12:07:57.012Z,27.89
2018-08-27T12:09:07.249Z,27.87
2018-08-27T12:10:17.373Z,27.72
2018-08-27T12:11:27.475Z,27.79
2018-08-27T12:12:37.644Z,27.83
2018-08-27T12:13:47.748Z,27.74
2018-08-27T12:14:57.831Z,27.79
2018-08-27T12:16:08.065Z,27.68
2018-08-27T12:17:18.148Z,27.59
2018-08-27T12:18:28.249Z,27.69
2018-08-27T12:19:38.343Z,27.76
2018-08-27T12:20:48.407Z,27.75
2018-08-27T12:21:58.525Z,27.72
2018-08-27T12:23:08.463Z,27.83
2018-08-27T12:24:18.444Z,27.74
2018-08-27T12:25:28.273Z,27.8
2018-08-27T12:26:38.365Z,27.79
2018-08-27T12:27:48.456Z,27.86
2018-08-27T12:28:58.298Z,27.86
2018-08-27T12:30:09.160Z,27.8
2018-08-27T12:31:19.006Z,27.71
2018-08-27T12:32:28.836Z,27.75
2018-08-27T12:33:38.931Z,27.59
2018-08-27T12:34:49.023Z,27.62
2018-08-27T12:35:59.116Z,27.61
2018-08-27T12:37:08.978Z,27.64
2018-08-27T12:38:19.093Z,27.55
2018-08-27T12:39:29.199Z,27.53
2018-08-27T12:40:39.422Z,27.57
2018-08-27T12:41:50.057Z,27.55
2018-08-27T12:42:59.883Z,27.55
2018-08-27T12:44:09.700Z,27.49
2018-08-27T12:45:19.537Z,27.59
2018-08-27T12:46:29.364Z,27.61
2018-08-27T12:47:39.454Z,27.59
2018-08-27T12:48:49.627Z,27.71
2018-08-27T12:49:59.744Z,27.69
2018-08-27T12:51:09.967Z,27.86
2018-08-27T12:52:20.199Z,27.91
2018-08-27T12:53:30.362Z,27.99
2018-08-27T12:54:40.474Z,27.96
2018-08-27T12:55:50.299Z,27.98
2018-08-27T12:57:00.428Z,27.94
2018-08-27T12:58:10.524Z,27.93
2018-08-27T12:59:20.443Z,28.06
2018-08-27T13:00:30.536Z,27.99
2018-08-27T13:01:40.627Z,28.11
2018-08-27T13:02:50.465Z,27.98
2018-08-27T13:04:00.358Z,28.05
2018-08-27T13:05:10.463Z,28.05
2018-08-27T13:06:20.337Z,28.02
2018-08-27T13:07:30.514Z,28.09
2018-08-27T13:08:40.106Z,27.96
2018-08-27T13:09:49.942Z,28.02
2018-08-27T13:11:00.027Z,28.03
2018-08-27T13:12:09.843Z,27.98
2018-08-27T13:13:19.939Z,27.99
2018-08-27T13:14:29.748Z,27.96
2018-08-27T13:15:39.843Z,27.99
2018-08-27T13:16:49.940Z,27.91
2018-08-27T13:18:00.070Z,27.91
2018-08-27T13:19:10.309Z,27.81
2018-08-27T13:20:20.422Z,27.86
2018-08-27T13:21:29.984Z,27.75
2018-08-27T13:22:39.798Z,27.71
2018-08-27T13:23:49.930Z,27.76
2018-08-27T13:25:00.029Z,27.72
2018-08-27T13:26:10.501Z,27.74
2018-08-27T13:27:20.955Z,27.84
2018-08-27T13:28:31.106Z,27.83
2018-08-27T13:29:40.964Z,27.75
2018-08-27T13:30:51.059Z,27.83
2018-08-27T13:32:01.531Z,27.89
2018-08-27T13:33:11.094Z,27.86
2018-08-27T13:34:20.941Z,27.94
2018-08-27T13:35:31.185Z,28.01
2018-08-27T13:36:41.419Z,28.05
2018-08-27T13:37:51.511Z,28.09
2018-08-27T13:39:01.803Z,28.08
2018-08-27T13:40:11.722Z,28.09
2018-08-27T13:41:22.247Z,28.06
2018-08-27T13:42:32.106Z,28.16
2018-08-27T13:43:42.194Z,28.06
2018-08-27T13:44:52.302Z,27.99
2018-08-27T13:46:02.409Z,28.02
2018-08-27T13:47:12.522Z,27.94
2018-08-27T13:48:22.364Z,27.89
2018-08-27T13:49:32.418Z,27.86
2018-08-27T13:50:42.256Z,27.87
2018-08-27T13:51:52.381Z,27.9
2018-08-27T13:53:02.219Z,27.87
2018-08-27T13:54:12.085Z,27.98
2018-08-27T13:55:22.191Z,28.03
2018-08-27T13:56:32.139Z,28.02
2018-08-27T13:57:42.648Z,27.98
2018-08-27T13:58:52.830Z,28.08
2018-08-27T14:00:03.455Z,28.12
2018-08-27T14:01:13.711Z,28.11
2018-08-27T14:02:23.832Z,28.09
2018-08-27T14:03:33.459Z,28.14
2018-08-27T14:04:43.547Z,28.14
2018-08-27T14:05:53.656Z,28.24
2018-08-27T14:07:03.760Z,28.16
2018-08-27T14:08:13.608Z,28.21
2018-08-27T14:09:23.772Z,28.21
2018-08-27T14:10:33.984Z,28.17
2018-08-27T14:11:44.231Z,28.17
2018-08-27T14:12:54.674Z,28.21
2018-08-27T14:14:04.749Z,28.16
2018-08-27T14:15:15.295Z,28.16
2018-08-27T14:16:25.861Z,28.14
2018-08-27T14:17:35.959Z,28.2
2018-08-27T14:18:46.062Z,28.2
2018-08-27T14:19:56.801Z,28.26
2018-08-27T14:21:07.666Z,28.17
2018-08-27T14:22:17.754Z,28.2
2018-08-27T14:23:27.860Z,28.21
2018-08-27T14:24:37.694Z,28.24
2018-08-27T14:25:48.201Z,28.18
2018-08-27T14:26:58.853Z,28.14
2018-08-27T14:28:08.955Z,28.18
2018-08-27T14:29:19.095Z,28.14
2018-08-27T14:30:29.192Z,28.18
2018-08-27T14:31:39.091Z,28.21
2018-08-27T14:32:49.645Z,28.17
2018-08-27T14:34:00.080Z,28.2
2018-08-27T14:35:10.185Z,28.24
2018-08-27T14:36:20.053Z,28.3
2018-08-27T14:37:30.158Z,28.24
2018-08-27T14:38:40.635Z,28.31
2018-08-27T14:39:51.209Z,28.35
2018-08-27T14:41:01.498Z,28.26
2018-08-27T14:42:11.793Z,28.28
2018-08-27T14:43:22.330Z,28.27
2018-08-27T14:44:32.307Z,28.17
2018-08-27T14:45:42.166Z,28.2
2018-08-27T14:46:52.262Z,28.18
2018-08-27T14:48:02.700Z,28.23
2018-08-27T14:49:13.396Z,28.14
2018-08-27T14:50:23.487Z,28.16
2018-08-27T14:51:33.586Z,28.17
2018-08-27T14:52:43.680Z,28.12
2018-08-27T14:53:53.779Z,28.17
2018-08-27T14:55:03.602Z,28.17
2018-08-27T14:56:13.907Z,28.11
2018-08-27T14:57:23.995Z,28.2
2018-08-27T14:58:34.094Z,28.17
2018-08-27T14:59:44.235Z,28.14
2018-08-27T15:00:54.338Z,28.12
2018-08-27T15:02:04.447Z,28.12
2018-08-27T15:03:14.430Z,28.14
2018-08-27T15:04:24.401Z,28.18
2018-08-27T15:05:34.224Z,28.16
2018-08-27T15:06:44.327Z,28.16
2018-08-27T15:07:54.429Z,28.16
2018-08-27T15:09:04.514Z,28.14
2018-08-27T15:10:14.645Z,28.05
2018-08-27T15:11:24.795Z,27.98
2018-08-27T15:12:34.896Z,28.01
2018-08-27T15:13:44.209Z,28.03
2018-08-27T15:14:54.038Z,28.01
2018-08-27T15:16:03.607Z,28.01
2018-08-27T15:17:13.887Z,28.01
2018-08-27T15:18:23.989Z,27.87
2018-08-27T15:19:34.097Z,27.87
2018-08-27T15:20:43.651Z,27.83
2018-08-27T15:21:53.741Z,27.89
2018-08-27T15:23:03.834Z,27.93
2018-08-27T15:24:13.940Z,27.93
2018-08-27T15:25:23.964Z,27.75
2018-08-27T15:26:34.072Z,27.87
2018-08-27T15:27:44.170Z,27.8
2018-08-27T15:28:54.434Z,27.79
2018-08-27T15:30:04.532Z,27.79
2018-08-27T15:31:14.898Z,27.86
2018-08-27T15:32:25.023Z,27.81
2018-08-27T15:33:34.848Z,27.71
2018-08-27T15:34:44.941Z,27.71
2018-08-27T15:35:55.072Z,27.66